METAR Formatted Surface Weather Observation
Issued by NWS

Current Version | Previous Version | Text Only | Print | Product List | Glossary On
Versions: 1 2 3 4 5 6 7 8 9 10
000
SAUS44 KMOB 260208 COR
MTRNDZ
METAR KNDZ 260156Z 00000KT 9SM CLR 27/25 A2995 RMK AO2 SLP125 T2 SET
T02720250 $


USA.gov is the U.S. government's official web portal to all federal, state and local government web resources and services.